sensor_id;sensor_type;location;lat;lon;timestamp;temperature;humidity
15003;DHT22;7597;53.590;10.020;2023-02-28T00:01:13;3.60;1.00
15003;DHT22;7597;53.590;10.020;2023-02-28T00:03:39;3.60;1.00
15003;DHT22;7597;53.590;10.020;2023-02-28T00:06:06;3.50;1.00
15003;DHT22;7597;53.590;10.020;2023-02-28T00:08:32;3.50;1.00
15003;DHT22;7597;53.590;10.020;2023-02-28T00:11:02;3.40;1.00
15003;DHT22;7597;53.590;10.020;2023-02-28T00:13:28;3.40;1.00
15003;DHT22;7597;53.590;10.020;2023-02-28T00:15:59;3.30;1.00
15003;DHT22;7597;53.590;10.020;2023-02-28T00:18:25;3.20;1.00
15003;DHT22;7597;53.590;10.020;2023-02-28T00:20:52;3.10;1.00
15003;DHT22;7597;53.590;10.020;2023-02-28T00:23:18;3.10;1.00
15003;DHT22;7597;53.590;10.020;2023-02-28T00:25:45;3.10;1.00
15003;DHT22;7597;53.590;10.020;2023-02-28T00:28:12;3.10;1.00
15003;DHT22;7597;53.590;10.020;2023-02-28T00:30:38;3.00;1.00
15003;DHT22;7597;53.590;10.020;2023-02-28T00:33:06;3.00;1.00
15003;DHT22;7597;53.590;10.020;2023-02-28T00:35:32;2.90;1.00
15003;DHT22;7597;53.590;10.020;2023-02-28T00:37:59;3.00;1.00
15003;DHT22;7597;53.590;10.020;2023-02-28T00:40:26;2.90;1.00
15003;DHT22;7597;53.590;10.020;2023-02-28T00:42:52;2.90;1.00
15003;DHT22;7597;53.590;10.020;2023-02-28T00:45:19;2.90;1.00
15003;DHT22;7597;53.590;10.020;2023-02-28T00:47:46;2.90;1.00
15003;DHT22;7597;53.590;10.020;2023-02-28T00:50:12;2.90;1.00
15003;DHT22;7597;53.590;10.020;2023-02-28T00:52:39;2.90;1.00
15003;DHT22;7597;53.590;10.020;2023-02-28T00:55:06;2.90;1.00
15003;DHT22;7597;53.590;10.020;2023-02-28T00:57:33;3.00;1.00
15003;DHT22;7597;53.590;10.020;2023-02-28T00:59:59;2.90;1.00
15003;DHT22;7597;53.590;10.020;2023-02-28T01:02:26;2.90;1.00
15003;DHT22;7597;53.590;10.020;2023-02-28T01:04:53;2.80;1.00
15003;DHT22;7597;53.590;10.020;2023-02-28T01:07:19;2.70;1.00
15003;DHT22;7597;53.590;10.020;2023-02-28T01:09:46;2.60;1.00
15003;DHT22;7597;53.590;10.020;2023-02-28T01:12:13;2.50;1.00
15003;DHT22;7597;53.590;10.020;2023-02-28T01:14:39;2.50;1.00
15003;DHT22;7597;53.590;10.020;2023-02-28T01:17:06;2.40;1.00
15003;DHT22;7597;53.590;10.020;2023-02-28T01:19:33;2.40;1.00
15003;DHT22;7597;53.590;10.020;2023-02-28T01:22:01;2.40;1.00
15003;DHT22;7597;53.590;10.020;2023-02-28T01:24:27;2.40;1.00
15003;DHT22;7597;53.590;10.020;2023-02-28T01:26:53;2.50;1.00
15003;DHT22;7597;53.590;10.020;2023-02-28T01:29:21;2.60;1.00
15003;DHT22;7597;53.590;10.020;2023-02-28T01:31:47;2.60;1.00
15003;DHT22;7597;53.590;10.020;2023-02-28T01:34:14;2.70;1.00
15003;DHT22;7597;53.590;10.020;2023-02-28T01:36:41;2.70;1.00
15003;DHT22;7597;53.590;10.020;2023-02-28T01:39:07;2.80;1.00
15003;DHT22;7597;53.590;10.020;2023-02-28T01:41:34;2.80;1.00
15003;DHT22;7597;53.590;10.020;2023-02-28T01:46:46;2.80;1.00
15003;DHT22;7597;53.590;10.020;2023-02-28T01:49:13;2.80;1.00
15003;DHT22;7597;53.590;10.020;2023-02-28T01:51:44;3.00;1.00
15003;DHT22;7597;53.590;10.020;2023-02-28T01:54:10;2.90;1.00
15003;DHT22;7597;53.590;10.020;2023-02-28T01:56:36;2.80;1.00
15003;DHT22;7597;53.590;10.020;2023-02-28T01:59:03;2.80;1.00
15003;DHT22;7597;53.590;10.020;2023-02-28T02:01:30;2.80;1.00
15003;DHT22;7597;53.590;10.020;2023-02-28T02:03:57;2.80;1.00
15003;DHT22;7597;53.590;10.020;2023-02-28T02:06:40;2.80;1.00
15003;DHT22;7597;53.590;10.020;2023-02-28T02:09:05;2.80;1.00
15003;DHT22;7597;53.590;10.020;2023-02-28T02:11:31;3.20;1.00
15003;DHT22;7597;53.590;10.020;2023-02-28T02:14:53;2.70;1.00
15003;DHT22;7597;53.590;10.020;2023-02-28T02:19:54;2.70;1.00
15003;DHT22;7597;53.590;10.020;2023-02-28T02:25:12;2.60;1.00
15003;DHT22;7597;53.590;10.020;2023-02-28T02:31:22;2.50;1.00
15003;DHT22;7597;53.590;10.020;2023-02-28T02:33:20;2.50;1.00
15003;DHT22;7597;53.590;10.020;2023-02-28T02:35:47;2.40;1.00
15003;DHT22;7597;53.590;10.020;2023-02-28T02:38:18;2.40;1.00
15003;DHT22;7597;53.590;10.020;2023-02-28T02:40:43;2.30;1.00
15003;DHT22;7597;53.590;10.020;2023-02-28T02:43:19;2.20;1.00
15003;DHT22;7597;53.590;10.020;2023-02-28T02:45:49;2.20;1.00
15003;DHT22;7597;53.590;10.020;2023-02-28T02:48:16;2.10;1.00
15003;DHT22;7597;53.590;10.020;2023-02-28T02:50:43;2.00;1.00
15003;DHT22;7597;53.590;10.020;2023-02-28T02:53:10;1.90;1.00
15003;DHT22;7597;53.590;10.020;2023-02-28T02:55:38;1.90;1.00
15003;DHT22;7597;53.590;10.020;2023-02-28T02:58:05;1.80;1.00
15003;DHT22;7597;53.590;10.020;2023-02-28T03:00:34;1.70;1.00
15003;DHT22;7597;53.590;10.020;2023-02-28T03:02:58;1.70;1.00
15003;DHT22;7597;53.590;10.020;2023-02-28T03:05:26;1.70;1.00
15003;DHT22;7597;53.590;10.020;2023-02-28T03:07:52;1.70;1.00
15003;DHT22;7597;53.590;10.020;2023-02-28T03:10:29;1.70;1.00
15003;DHT22;7597;53.590;10.020;2023-02-28T03:13:00;1.60;1.00
15003;DHT22;7597;53.590;10.020;2023-02-28T03:15:26;1.50;1.00
15003;DHT22;7597;53.590;10.020;2023-02-28T03:17:59;1.50;1.00
15003;DHT22;7597;53.590;10.020;2023-02-28T03:20:32;1.40;1.00
15003;DHT22;7597;53.590;10.020;2023-02-28T03:23:06;1.40;1.00
15003;DHT22;7597;53.590;10.020;2023-02-28T03:25:36;1.30;1.00
15003;DHT22;7597;53.590;10.020;2023-02-28T03:28:03;1.20;1.00
15003;DHT22;7597;53.590;10.020;2023-02-28T03:30:31;1.10;1.00
15003;DHT22;7597;53.590;10.020;2023-02-28T03:32:57;1.10;1.00
15003;DHT22;7597;53.590;10.020;2023-02-28T03:35:25;1.10;1.00
15003;DHT22;7597;53.590;10.020;2023-02-28T03:37:52;1.00;1.00
15003;DHT22;7597;53.590;10.020;2023-02-28T03:40:19;0.90;1.00
15003;DHT22;7597;53.590;10.020;2023-02-28T03:42:45;0.80;1.00
15003;DHT22;7597;53.590;10.020;2023-02-28T03:45:11;0.80;1.00
15003;DHT22;7597;53.590;10.020;2023-02-28T03:47:41;0.70;1.00
15003;DHT22;7597;53.590;10.020;2023-02-28T03:50:13;0.70;1.00
15003;DHT22;7597;53.590;10.020;2023-02-28T03:52:40;0.60;1.00
15003;DHT22;7597;53.590;10.020;2023-02-28T03:55:06;0.50;1.00
15003;DHT22;7597;53.590;10.020;2023-02-28T03:57:37;0.40;1.00
15003;DHT22;7597;53.590;10.020;2023-02-28T04:00:04;0.40;1.00
15003;DHT22;7597;53.590;10.020;2023-02-28T04:02:28;0.40;1.00
15003;DHT22;7597;53.590;10.020;2023-02-28T04:04:55;0.40;1.00
15003;DHT22;7597;53.590;10.020;2023-02-28T04:07:21;0.30;1.00
15003;DHT22;7597;53.590;10.020;2023-02-28T04:09:48;0.20;1.00
15003;DHT22;7597;53.590;10.020;2023-02-28T04:12:15;0.10;1.00
15003;DHT22;7597;53.590;10.020;2023-02-28T04:14:41;0.00;1.00
15003;DHT22;7597;53.590;10.020;2023-02-28T04:17:08;0.00;1.00
15003;DHT22;7597;53.590;10.020;2023-02-28T04:19:35;0.00;1.00
15003;DHT22;7597;53.590;10.020;2023-02-28T04:22:01;0.10;1.00
15003;DHT22;7597;53.590;10.020;2023-02-28T04:24:28;0.10;1.00
15003;DHT22;7597;53.590;10.020;2023-02-28T04:26:55;0.10;1.00
15003;DHT22;7597;53.590;10.020;2023-02-28T04:29:26;0.10;1.00
15003;DHT22;7597;53.590;10.020;2023-02-28T04:31:51;0.00;1.00
15003;DHT22;7597;53.590;10.020;2023-02-28T04:34:20;0.00;1.00
15003;DHT22;7597;53.590;10.020;2023-02-28T04:36:47;-0.10;1.00
15003;DHT22;7597;53.590;10.020;2023-02-28T04:39:17;-0.10;1.00
15003;DHT22;7597;53.590;10.020;2023-02-28T04:41:44;-0.20;1.00
15003;DHT22;7597;53.590;10.020;2023-02-28T04:44:10;-0.20;1.00
15003;DHT22;7597;53.590;10.020;2023-02-28T04:46:38;-0.20;1.00
15003;DHT22;7597;53.590;10.020;2023-02-28T04:49:05;-0.20;1.00
15003;DHT22;7597;53.590;10.020;2023-02-28T04:51:31;-0.10;1.00
15003;DHT22;7597;53.590;10.020;2023-02-28T04:53:58;-0.30;1.00
15003;DHT22;7597;53.590;10.020;2023-02-28T04:56:24;-0.40;1.00
15003;DHT22;7597;53.590;10.020;2023-02-28T04:58:51;-0.50;1.00
15003;DHT22;7597;53.590;10.020;2023-02-28T05:01:22;-0.60;1.00
15003;DHT22;7597;53.590;10.020;2023-02-28T05:03:47;-0.60;1.00
15003;DHT22;7597;53.590;10.020;2023-02-28T05:06:13;-0.70;1.00
15003;DHT22;7597;53.590;10.020;2023-02-28T05:08:40;-0.90;1.00
15003;DHT22;7597;53.590;10.020;2023-02-28T05:11:13;-1.00;1.00
15003;DHT22;7597;53.590;10.020;2023-02-28T05:13:35;-1.10;1.00
15003;DHT22;7597;53.590;10.020;2023-02-28T05:16:02;-1.20;1.00
15003;DHT22;7597;53.590;10.020;2023-02-28T05:18:28;-1.20;1.00
15003;DHT22;7597;53.590;10.020;2023-02-28T05:20:55;-1.20;1.00
15003;DHT22;7597;53.590;10.020;2023-02-28T05:23:22;-1.20;1.00
15003;DHT22;7597;53.590;10.020;2023-02-28T05:25:48;-1.10;1.00
15003;DHT22;7597;53.590;10.020;2023-02-28T05:28:15;-0.90;1.00
15003;DHT22;7597;53.590;10.020;2023-02-28T05:30:42;-0.80;1.00
15003;DHT22;7597;53.590;10.020;2023-02-28T05:33:10;-0.80;1.00
15003;DHT22;7597;53.590;10.020;2023-02-28T05:35:38;-0.80;1.00
15003;DHT22;7597;53.590;10.020;2023-02-28T05:38:03;-0.90;1.00
15003;DHT22;7597;53.590;10.020;2023-02-28T05:40:30;-0.50;1.00
15003;DHT22;7597;53.590;10.020;2023-02-28T05:42:57;-1.00;1.00
15003;DHT22;7597;53.590;10.020;2023-02-28T05:45:23;-1.00;1.00
15003;DHT22;7597;53.590;10.020;2023-02-28T05:47:57;-1.10;1.00
15003;DHT22;7597;53.590;10.020;2023-02-28T05:50:24;-1.10;1.00
15003;DHT22;7597;53.590;10.020;2023-02-28T05:52:51;-1.10;1.00
15003;DHT22;7597;53.590;10.020;2023-02-28T05:55:18;-1.10;1.00
15003;DHT22;7597;53.590;10.020;2023-02-28T05:57:44;-1.20;1.00
15003;DHT22;7597;53.590;10.020;2023-02-28T06:00:13;-1.10;1.00
15003;DHT22;7597;53.590;10.020;2023-02-28T06:02:40;-1.10;1.00
15003;DHT22;7597;53.590;10.020;2023-02-28T06:05:10;-1.10;1.00
15003;DHT22;7597;53.590;10.020;2023-02-28T06:07:34;-0.90;1.00
15003;DHT22;7597;53.590;10.020;2023-02-28T06:10:01;-1.20;1.00
15003;DHT22;7597;53.590;10.020;2023-02-28T06:12:28;-0.80;1.00
15003;DHT22;7597;53.590;10.020;2023-02-28T06:14:54;-1.40;1.00
15003;DHT22;7597;53.590;10.020;2023-02-28T06:17:21;-1.40;1.00
15003;DHT22;7597;53.590;10.020;2023-02-28T06:19:48;-1.50;1.00
15003;DHT22;7597;53.590;10.020;2023-02-28T06:22:14;-1.50;1.00
15003;DHT22;7597;53.590;10.020;2023-02-28T06:24:41;-1.50;1.00
15003;DHT22;7597;53.590;10.020;2023-02-28T06:27:08;-1.40;1.00
15003;DHT22;7597;53.590;10.020;2023-02-28T06:29:34;-1.30;1.00
15003;DHT22;7597;53.590;10.020;2023-02-28T06:32:02;-1.00;1.00
15003;DHT22;7597;53.590;10.020;2023-02-28T06:34:29;-0.60;1.00
15003;DHT22;7597;53.590;10.020;2023-02-28T06:36:56;-0.10;15.30
15003;DHT22;7597;53.590;10.020;2023-02-28T06:39:24;0.40;1.00
15003;DHT22;7597;53.590;10.020;2023-02-28T06:41:51;1.10;1.00
15003;DHT22;7597;53.590;10.020;2023-02-28T06:44:17;1.70;1.00
15003;DHT22;7597;53.590;10.020;2023-02-28T06:46:45;2.30;1.00
15003;DHT22;7597;53.590;10.020;2023-02-28T06:49:12;3.50;1.00
15003;DHT22;7597;53.590;10.020;2023-02-28T06:51:39;3.50;1.00
15003;DHT22;7597;53.590;10.020;2023-02-28T06:54:05;4.00;1.00
15003;DHT22;7597;53.590;10.020;2023-02-28T06:56:32;4.60;1.00
15003;DHT22;7597;53.590;10.020;2023-02-28T06:58:59;5.30;1.00
15003;DHT22;7597;53.590;10.020;2023-02-28T07:01:26;5.30;1.00
15003;DHT22;7597;53.590;10.020;2023-02-28T07:03:54;5.30;1.00
15003;DHT22;7597;53.590;10.020;2023-02-28T07:06:21;5.10;1.00
15003;DHT22;7597;53.590;10.020;2023-02-28T07:08:48;5.80;1.00
15003;DHT22;7597;53.590;10.020;2023-02-28T07:11:15;5.80;1.00
15003;DHT22;7597;53.590;10.020;2023-02-28T07:13:42;6.30;1.00
15003;DHT22;7597;53.590;10.020;2023-02-28T07:16:10;6.60;1.00
15003;DHT22;7597;53.590;10.020;2023-02-28T07:18:35;6.60;1.00
15003;DHT22;7597;53.590;10.020;2023-02-28T07:21:02;6.40;1.00
15003;DHT22;7597;53.590;10.020;2023-02-28T07:23:29;7.20;1.00
15003;DHT22;7597;53.590;10.020;2023-02-28T07:25:57;7.20;1.00
15003;DHT22;7597;53.590;10.020;2023-02-28T07:28:23;7.70;1.00
15003;DHT22;7597;53.590;10.020;2023-02-28T07:30:50;8.00;1.00
15003;DHT22;7597;53.590;10.020;2023-02-28T07:33:17;8.60;1.00
15003;DHT22;7597;53.590;10.020;2023-02-28T07:35:44;9.30;1.00
15003;DHT22;7597;53.590;10.020;2023-02-28T07:38:10;10.10;1.00
15003;DHT22;7597;53.590;10.020;2023-02-28T07:40:38;11.00;1.00
15003;DHT22;7597;53.590;10.020;2023-02-28T07:43:05;11.70;1.00
15003;DHT22;7597;53.590;10.020;2023-02-28T07:45:31;12.00;1.00
15003;DHT22;7597;53.590;10.020;2023-02-28T07:47:58;12.50;1.00
15003;DHT22;7597;53.590;10.020;2023-02-28T07:50:25;13.00;1.00
15003;DHT22;7597;53.590;10.020;2023-02-28T07:52:51;12.60;1.00
15003;DHT22;7597;53.590;10.020;2023-02-28T07:55:18;12.70;1.00
15003;DHT22;7597;53.590;10.020;2023-02-28T07:57:45;12.90;1.00
15003;DHT22;7597;53.590;10.020;2023-02-28T08:00:15;12.90;1.00
15003;DHT22;7597;53.590;10.020;2023-02-28T08:02:42;12.80;1.00
15003;DHT22;7597;53.590;10.020;2023-02-28T08:05:09;13.40;1.00
15003;DHT22;7597;53.590;10.020;2023-02-28T08:07:39;14.20;1.00
15003;DHT22;7597;53.590;10.020;2023-02-28T08:10:06;14.70;1.00
15003;DHT22;7597;53.590;10.020;2023-02-28T08:12:40;15.10;1.00
15003;DHT22;7597;53.590;10.020;2023-02-28T08:15:08;15.60;1.00
15003;DHT22;7597;53.590;10.020;2023-02-28T08:17:34;15.60;1.00
15003;DHT22;7597;53.590;10.020;2023-02-28T08:20:02;16.10;1.00
15003;DHT22;7597;53.590;10.020;2023-02-28T08:22:29;16.10;1.00
15003;DHT22;7597;53.590;10.020;2023-02-28T08:24:56;15.90;1.00
15003;DHT22;7597;53.590;10.020;2023-02-28T08:27:22;15.10;1.00
15003;DHT22;7597;53.590;10.020;2023-02-28T08:29:50;15.40;1.00
15003;DHT22;7597;53.590;10.020;2023-02-28T08:32:19;15.50;1.00
15003;DHT22;7597;53.590;10.020;2023-02-28T09:22:03;17.90;1.00
15003;DHT22;7597;53.590;10.020;2023-02-28T09:24:32;18.00;1.00
15003;DHT22;7597;53.590;10.020;2023-02-28T09:26:59;18.30;1.00
15003;DHT22;7597;53.590;10.020;2023-02-28T09:29:26;18.40;1.00
15003;DHT22;7597;53.590;10.020;2023-02-28T09:31:53;18.90;1.00
15003;DHT22;7597;53.590;10.020;2023-02-28T09:34:19;19.50;1.00
15003;DHT22;7597;53.590;10.020;2023-02-28T09:36:46;18.80;1.00
15003;DHT22;7597;53.590;10.020;2023-02-28T09:39:13;18.10;1.00
15003;DHT22;7597;53.590;10.020;2023-02-28T09:41:43;17.60;1.00
15003;DHT22;7597;53.590;10.020;2023-02-28T13:36:29;13.80;1.00
15003;DHT22;7597;53.590;10.020;2023-02-28T13:41:52;14.20;1.00
15003;DHT22;7597;53.590;10.020;2023-02-28T13:44:20;13.80;1.00
15003;DHT22;7597;53.590;10.020;2023-02-28T13:49:43;13.80;1.00
15003;DHT22;7597;53.590;10.020;2023-02-28T13:52:15;14.10;1.00
15003;DHT22;7597;53.590;10.020;2023-02-28T13:57:33;14.20;1.00
15003;DHT22;7597;53.590;10.020;2023-02-28T14:00:13;14.20;1.00
15003;DHT22;7597;53.590;10.020;2023-02-28T14:02:59;13.10;1.00
15003;DHT22;7597;53.590;10.020;2023-02-28T14:05:20;13.00;1.00
15003;DHT22;7597;53.590;10.020;2023-02-28T14:07:50;12.50;1.00
15003;DHT22;7597;53.590;10.020;2023-02-28T14:10:22;12.10;1.00
15003;DHT22;7597;53.590;10.020;2023-02-28T14:12:54;12.30;1.00
15003;DHT22;7597;53.590;10.020;2023-02-28T14:16:00;12.30;1.00
15003;DHT22;7597;53.590;10.020;2023-02-28T14:20:48;11.70;1.00
15003;DHT22;7597;53.590;10.020;2023-02-28T14:23:19;12.20;1.00
15003;DHT22;7597;53.590;10.020;2023-02-28T14:28:50;13.20;1.00
15003;DHT22;7597;53.590;10.020;2023-02-28T14:31:29;12.80;1.00
15003;DHT22;7597;53.590;10.020;2023-02-28T14:34:05;12.90;1.00
15003;DHT22;7597;53.590;10.020;2023-02-28T14:36:37;12.50;1.00
15003;DHT22;7597;53.590;10.020;2023-02-28T14:39:10;12.30;1.00
15003;DHT22;7597;53.590;10.020;2023-02-28T14:41:35;12.20;1.00
15003;DHT22;7597;53.590;10.020;2023-02-28T14:44:01;12.10;1.00
15003;DHT22;7597;53.590;10.020;2023-02-28T14:46:33;11.90;1.00
15003;DHT22;7597;53.590;10.020;2023-02-28T14:48:55;12.30;1.00
15003;DHT22;7597;53.590;10.020;2023-02-28T14:51:22;12.50;1.00
15003;DHT22;7597;53.590;10.020;2023-02-28T14:53:50;12.80;1.00
15003;DHT22;7597;53.590;10.020;2023-02-28T14:56:22;12.50;1.00
15003;DHT22;7597;53.590;10.020;2023-02-28T14:58:51;12.30;1.00
15003;DHT22;7597;53.590;10.020;2023-02-28T15:01:18;12.10;1.00
15003;DHT22;7597;53.590;10.020;2023-02-28T15:03:44;12.10;1.00
15003;DHT22;7597;53.590;10.020;2023-02-28T15:06:13;11.70;1.00
15003;DHT22;7597;53.590;10.020;2023-02-28T15:08:40;11.50;1.00
15003;DHT22;7597;53.590;10.020;2023-02-28T15:11:08;11.50;1.00
15003;DHT22;7597;53.590;10.020;2023-02-28T15:13:40;11.70;1.00
15003;DHT22;7597;53.590;10.020;2023-02-28T15:16:17;11.90;1.00
15003;DHT22;7597;53.590;10.020;2023-02-28T15:18:59;12.30;1.00
15003;DHT22;7597;53.590;10.020;2023-02-28T15:21:31;12.20;1.00
15003;DHT22;7597;53.590;10.020;2023-02-28T15:24:18;11.40;1.00
15003;DHT22;7597;53.590;10.020;2023-02-28T15:26:45;11.10;1.00
15003;DHT22;7597;53.590;10.020;2023-02-28T15:29:13;10.70;1.00
15003;DHT22;7597;53.590;10.020;2023-02-28T15:31:43;10.60;1.00
15003;DHT22;7597;53.590;10.020;2023-02-28T15:34:14;10.70;1.00
15003;DHT22;7597;53.590;10.020;2023-02-28T15:36:34;10.80;1.00
15003;DHT22;7597;53.590;10.020;2023-02-28T15:39:01;10.70;1.00
15003;DHT22;7597;53.590;10.020;2023-02-28T15:41:30;10.40;1.00
15003;DHT22;7597;53.590;10.020;2023-02-28T15:46:34;9.70;1.00
15003;DHT22;7597;53.590;10.020;2023-02-28T15:49:02;9.30;1.00
15003;DHT22;7597;53.590;10.020;2023-02-28T15:51:33;9.10;1.00
15003;DHT22;7597;53.590;10.020;2023-02-28T15:54:05;8.60;1.00
15003;DHT22;7597;53.590;10.020;2023-02-28T15:56:32;8.60;1.00
15003;DHT22;7597;53.590;10.020;2023-02-28T15:59:06;8.60;1.00
15003;DHT22;7597;53.590;10.020;2023-02-28T16:01:35;8.40;1.00
15003;DHT22;7597;53.590;10.020;2023-02-28T16:04:04;8.30;1.00
15003;DHT22;7597;53.590;10.020;2023-02-28T16:06:40;8.30;1.00
15003;DHT22;7597;53.590;10.020;2023-02-28T16:09:09;8.10;1.00
15003;DHT22;7597;53.590;10.020;2023-02-28T16:11:42;7.70;1.00
15003;DHT22;7597;53.590;10.020;2023-02-28T16:14:12;7.70;1.00
15003;DHT22;7597;53.590;10.020;2023-02-28T16:16:45;7.50;1.00
15003;DHT22;7597;53.590;10.020;2023-02-28T16:19:11;7.40;1.00
15003;DHT22;7597;53.590;10.020;2023-02-28T16:21:38;7.30;1.00
15003;DHT22;7597;53.590;10.020;2023-02-28T16:24:05;7.10;1.00
15003;DHT22;7597;53.590;10.020;2023-02-28T16:26:32;7.00;1.00
15003;DHT22;7597;53.590;10.020;2023-02-28T16:28:59;6.90;1.00
15003;DHT22;7597;53.590;10.020;2023-02-28T16:31:26;6.80;1.00
15003;DHT22;7597;53.590;10.020;2023-02-28T16:33:53;6.40;1.00
15003;DHT22;7597;53.590;10.020;2023-02-28T16:36:20;6.60;1.00
15003;DHT22;7597;53.590;10.020;2023-02-28T16:38:46;6.50;1.00
15003;DHT22;7597;53.590;10.020;2023-02-28T16:41:14;6.40;1.00
15003;DHT22;7597;53.590;10.020;2023-02-28T16:43:40;6.40;1.00
15003;DHT22;7597;53.590;10.020;2023-02-28T16:46:07;6.30;1.00
15003;DHT22;7597;53.590;10.020;2023-02-28T16:48:33;6.30;1.00
15003;DHT22;7597;53.590;10.020;2023-02-28T16:51:00;6.20;1.00
15003;DHT22;7597;53.590;10.020;2023-02-28T16:53:27;6.00;1.00
15003;DHT22;7597;53.590;10.020;2023-02-28T16:55:54;6.00;1.00
15003;DHT22;7597;53.590;10.020;2023-02-28T16:58:22;5.90;1.00
15003;DHT22;7597;53.590;10.020;2023-02-28T17:00:49;5.80;1.00
15003;DHT22;7597;53.590;10.020;2023-02-28T17:03:23;5.70;1.00
15003;DHT22;7597;53.590;10.020;2023-02-28T17:05:49;5.70;1.00
15003;DHT22;7597;53.590;10.020;2023-02-28T17:08:15;5.70;1.00
15003;DHT22;7597;53.590;10.020;2023-02-28T17:10:42;5.60;1.00
15003;DHT22;7597;53.590;10.020;2023-02-28T17:13:09;5.50;1.00
15003;DHT22;7597;53.590;10.020;2023-02-28T17:15:36;5.40;1.00
15003;DHT22;7597;53.590;10.020;2023-02-28T17:18:04;5.20;1.00
15003;DHT22;7597;53.590;10.020;2023-02-28T17:20:31;5.20;1.00
15003;DHT22;7597;53.590;10.020;2023-02-28T17:23:05;5.20;1.00
15003;DHT22;7597;53.590;10.020;2023-02-28T17:25:31;5.10;1.00
15003;DHT22;7597;53.590;10.020;2023-02-28T17:27:58;5.10;1.00
15003;DHT22;7597;53.590;10.020;2023-02-28T17:33:09;4.90;1.00
15003;DHT22;7597;53.590;10.020;2023-02-28T17:35:36;4.80;1.00
15003;DHT22;7597;53.590;10.020;2023-02-28T17:38:04;4.70;1.00
15003;DHT22;7597;53.590;10.020;2023-02-28T17:40:31;4.60;1.00
15003;DHT22;7597;53.590;10.020;2023-02-28T17:43:00;4.60;1.00
15003;DHT22;7597;53.590;10.020;2023-02-28T17:45:28;4.30;1.00
15003;DHT22;7597;53.590;10.020;2023-02-28T17:47:55;4.30;1.00
15003;DHT22;7597;53.590;10.020;2023-02-28T18:16:49;4.00;1.00
15003;DHT22;7597;53.590;10.020;2023-02-28T18:19:19;3.50;1.00
15003;DHT22;7597;53.590;10.020;2023-02-28T18:21:47;3.40;1.00
15003;DHT22;7597;53.590;10.020;2023-02-28T18:24:13;3.30;1.00
15003;DHT22;7597;53.590;10.020;2023-02-28T18:26:41;3.20;1.00
15003;DHT22;7597;53.590;10.020;2023-02-28T18:29:20;3.10;1.00
15003;DHT22;7597;53.590;10.020;2023-02-28T18:31:45;3.00;1.00
15003;DHT22;7597;53.590;10.020;2023-02-28T18:34:12;2.90;1.00
15003;DHT22;7597;53.590;10.020;2023-02-28T18:36:39;2.80;1.00
15003;DHT22;7597;53.590;10.020;2023-02-28T18:39:07;2.60;1.00
15003;DHT22;7597;53.590;10.020;2023-02-28T18:41:34;2.50;1.00
15003;DHT22;7597;53.590;10.020;2023-02-28T18:44:02;2.40;1.00
15003;DHT22;7597;53.590;10.020;2023-02-28T18:46:29;2.30;1.00
15003;DHT22;7597;53.590;10.020;2023-02-28T18:48:55;2.20;1.00
15003;DHT22;7597;53.590;10.020;2023-02-28T18:51:23;2.00;1.00
15003;DHT22;7597;53.590;10.020;2023-02-28T18:53:50;1.90;1.00
15003;DHT22;7597;53.590;10.020;2023-02-28T18:56:18;1.90;1.00
15003;DHT22;7597;53.590;10.020;2023-02-28T18:58:44;1.90;1.00
15003;DHT22;7597;53.590;10.020;2023-02-28T19:01:17;1.80;1.00
15003;DHT22;7597;53.590;10.020;2023-02-28T19:03:43;1.80;1.00
15003;DHT22;7597;53.590;10.020;2023-02-28T19:06:09;1.70;1.00
15003;DHT22;7597;53.590;10.020;2023-02-28T19:08:36;1.90;1.00
15003;DHT22;7597;53.590;10.020;2023-02-28T19:11:07;1.90;1.00
15003;DHT22;7597;53.590;10.020;2023-02-28T19:13:34;2.00;1.00
15003;DHT22;7597;53.590;10.020;2023-02-28T19:16:02;2.00;1.00
15003;DHT22;7597;53.590;10.020;2023-02-28T19:18:30;1.90;1.00
15003;DHT22;7597;53.590;10.020;2023-02-28T19:20:57;2.00;1.00
15003;DHT22;7597;53.590;10.020;2023-02-28T19:23:25;2.10;1.00
15003;DHT22;7597;53.590;10.020;2023-02-28T19:25:52;2.20;1.00
15003;DHT22;7597;53.590;10.020;2023-02-28T19:28:19;2.30;1.00
15003;DHT22;7597;53.590;10.020;2023-02-28T19:30:50;2.20;1.00
15003;DHT22;7597;53.590;10.020;2023-02-28T19:33:16;2.00;1.00
15003;DHT22;7597;53.590;10.020;2023-02-28T19:35:47;1.90;1.00
15003;DHT22;7597;53.590;10.020;2023-02-28T19:38:17;1.70;1.00
15003;DHT22;7597;53.590;10.020;2023-02-28T19:40:45;1.70;1.00
15003;DHT22;7597;53.590;10.020;2023-02-28T19:43:12;1.70;1.00
15003;DHT22;7597;53.590;10.020;2023-02-28T19:45:39;1.80;1.00
15003;DHT22;7597;53.590;10.020;2023-02-28T19:48:06;1.80;1.00
15003;DHT22;7597;53.590;10.020;2023-02-28T19:50:35;1.70;1.00
15003;DHT22;7597;53.590;10.020;2023-02-28T19:53:01;1.50;1.00
15003;DHT22;7597;53.590;10.020;2023-02-28T19:55:32;1.70;1.00
15003;DHT22;7597;53.590;10.020;2023-02-28T19:58:00;1.60;1.00
15003;DHT22;7597;53.590;10.020;2023-02-28T20:00:27;1.60;1.00
15003;DHT22;7597;53.590;10.020;2023-02-28T20:03:02;1.40;1.00
15003;DHT22;7597;53.590;10.020;2023-02-28T20:05:32;1.30;1.00
15003;DHT22;7597;53.590;10.020;2023-02-28T20:08:00;1.20;1.00
15003;DHT22;7597;53.590;10.020;2023-02-28T20:10:29;1.00;1.00
15003;DHT22;7597;53.590;10.020;2023-02-28T20:12:57;1.00;1.00
15003;DHT22;7597;53.590;10.020;2023-02-28T20:15:24;1.00;1.00
15003;DHT22;7597;53.590;10.020;2023-02-28T20:17:51;1.00;1.00
15003;DHT22;7597;53.590;10.020;2023-02-28T20:20:18;1.00;1.00
15003;DHT22;7597;53.590;10.020;2023-02-28T20:22:45;1.10;1.00
15003;DHT22;7597;53.590;10.020;2023-02-28T20:25:12;1.00;1.00
15003;DHT22;7597;53.590;10.020;2023-02-28T20:27:39;0.90;1.00
15003;DHT22;7597;53.590;10.020;2023-02-28T20:30:06;0.80;1.00
15003;DHT22;7597;53.590;10.020;2023-02-28T20:32:34;0.70;1.00
15003;DHT22;7597;53.590;10.020;2023-02-28T20:35:01;0.60;1.00
15003;DHT22;7597;53.590;10.020;2023-02-28T20:37:27;0.50;1.00
15003;DHT22;7597;53.590;10.020;2023-02-28T20:39:56;0.50;1.00
15003;DHT22;7597;53.590;10.020;2023-02-28T20:42:23;0.50;1.00
15003;DHT22;7597;53.590;10.020;2023-02-28T20:44:52;0.40;1.00
15003;DHT22;7597;53.590;10.020;2023-02-28T20:47:18;0.40;1.00
15003;DHT22;7597;53.590;10.020;2023-02-28T20:49:46;0.30;1.00
15003;DHT22;7597;53.590;10.020;2023-02-28T20:52:13;0.80;1.00
15003;DHT22;7597;53.590;10.020;2023-02-28T20:54:41;0.20;1.00
15003;DHT22;7597;53.590;10.020;2023-02-28T20:57:07;0.20;1.00
15003;DHT22;7597;53.590;10.020;2023-02-28T20:59:36;0.10;1.00
15003;DHT22;7597;53.590;10.020;2023-02-28T21:02:02;0.30;1.00
15003;DHT22;7597;53.590;10.020;2023-02-28T21:04:29;0.10;1.00
15003;DHT22;7597;53.590;10.020;2023-02-28T21:06:57;0.10;1.00
15003;DHT22;7597;53.590;10.020;2023-02-28T21:09:24;0.10;1.00
15003;DHT22;7597;53.590;10.020;2023-02-28T21:11:52;0.00;1.00
15003;DHT22;7597;53.590;10.020;2023-02-28T21:14:19;0.00;1.00
15003;DHT22;7597;53.590;10.020;2023-02-28T21:16:47;0.00;1.00
15003;DHT22;7597;53.590;10.020;2023-02-28T21:19:14;0.00;1.00
15003;DHT22;7597;53.590;10.020;2023-02-28T21:21:42;0.00;1.00
15003;DHT22;7597;53.590;10.020;2023-02-28T21:24:11;0.00;1.00
15003;DHT22;7597;53.590;10.020;2023-02-28T21:26:38;0.00;1.00
15003;DHT22;7597;53.590;10.020;2023-02-28T21:29:05;0.00;1.00
15003;DHT22;7597;53.590;10.020;2023-02-28T21:31:32;0.00;1.00
15003;DHT22;7597;53.590;10.020;2023-02-28T21:33:58;0.00;1.00
15003;DHT22;7597;53.590;10.020;2023-02-28T21:36:25;-0.10;1.00
15003;DHT22;7597;53.590;10.020;2023-02-28T21:38:56;-0.10;1.00